Time;durP1;ratioP1;P1;durP2;ratioP2;P2;SDS_P1;SDS_P2;PMS_P1;PMS_P2;Temp;Humidity;BMP_temperature;BMP_pressure;BME280_temperature;BME280_humidity;BME280_pressure;Samples;Min_cycle;Max_cycle;Signal;HPM_P1;HPM_P2
2024/01/07 00:01:30;;;;;;;20.33;13.35;;;1.90;99.90;;;;;;4971167;28;20038;-78
2024/01/07 00:03:56;;;;;;;22.70;15.13;;;1.90;99.90;;;;;;4951805;28;20038;-78
2024/01/07 00:06:21;;;;;;;27.25;16.45;;;1.90;99.90;;;;;;4972573;28;20045;-79
2024/01/07 00:08:47;;;;;;;23.67;15.30;;;1.80;99.90;;;;;;4969294;28;20073;-80
2024/01/07 00:11:13;;;;;;;21.63;13.98;;;1.90;99.90;;;;;;4978254;28;20141;-78
2024/01/07 00:13:38;;;;;;;22.50;13.57;;;1.80;99.90;;;;;;4972711;28;20043;-78
2024/01/07 00:16:04;;;;;;;21.67;13.60;;;1.80;99.90;;;;;;4966816;28;20039;-77
2024/01/07 00:18:30;;;;;;;22.77;15.38;;;1.80;99.90;;;;;;4969848;28;20089;-81
2024/01/07 00:20:55;;;;;;;21.63;14.15;;;1.80;99.90;;;;;;4971706;28;20161;-80
2024/01/07 00:23:21;;;;;;;23.63;13.73;;;1.80;99.90;;;;;;4966994;28;20486;-78
2024/01/07 00:25:47;;;;;;;22.83;13.38;;;1.80;99.90;;;;;;5002187;23;20102;-74
2024/01/07 00:28:13;;;;;;;21.13;13.63;;;1.80;99.90;;;;;;4971539;28;20042;-77
2024/01/07 00:30:48;;;;;;;21.42;13.20;;;1.80;99.90;;;;;;4957285;28;20409;-76
2024/01/07 00:33:14;;;;;;;21.42;13.57;;;1.80;99.90;;;;;;4971773;28;20073;-73
2024/01/07 00:35:40;;;;;;;23.58;14.88;;;1.80;99.90;;;;;;4970914;28;20042;-72
2024/01/07 00:38:06;;;;;;;23.23;15.35;;;1.80;99.90;;;;;;4949355;28;20046;-74
2024/01/07 00:40:31;;;;;;;22.13;14.35;;;1.80;99.90;;;;;;4963101;28;20097;-74
2024/01/07 00:42:57;;;;;;;22.88;14.80;;;1.80;99.90;;;;;;4963709;28;20042;-73
2024/01/07 00:45:23;;;;;;;26.42;16.73;;;1.80;99.90;;;;;;4981544;28;20092;-73
2024/01/07 00:47:48;;;;;;;30.45;18.92;;;1.80;99.90;;;;;;4961381;28;20134;-73
2024/01/07 00:50:15;;;;;;;44.53;25.48;;;1.80;99.90;;;;;;4962666;28;20088;-72
2024/01/07 00:52:43;;;;;;;32.25;19.85;;;1.80;99.90;;;;;;4982378;28;20441;-72
2024/01/07 00:55:09;;;;;;;31.15;20.08;;;1.80;99.90;;;;;;4949041;28;20031;-73
2024/01/07 00:57:37;;;;;;;29.30;16.63;;;1.80;99.90;;;;;;4947014;28;20037;-73
2024/01/07 01:00:06;;;;;;;24.73;15.32;;;1.80;99.90;;;;;;4982587;28;20034;-73
2024/01/07 01:02:32;;;;;;;23.48;15.77;;;1.80;99.90;;;;;;4968036;28;20047;-73
2024/01/07 01:04:57;;;;;;;24.52;14.43;;;1.80;99.90;;;;;;4980177;28;20057;-73
2024/01/07 01:07:23;;;;;;;24.48;15.48;;;1.90;99.90;;;;;;4951420;28;20401;-73
2024/01/07 01:09:49;;;;;;;25.38;17.95;;;1.80;99.90;;;;;;4989120;28;20153;-73
2024/01/07 01:12:15;;;;;;;27.20;17.77;;;1.80;99.90;;;;;;4987034;28;20050;-73
2024/01/07 01:14:41;;;;;;;23.17;13.00;;;1.90;99.90;;;;;;4974854;28;20442;-73
2024/01/07 01:17:07;;;;;;;22.10;14.27;;;1.80;99.90;;;;;;4944494;28;20050;-73
2024/01/07 01:19:32;;;;;;;19.90;12.93;;;1.80;99.90;;;;;;4989815;28;20388;-73
2024/01/07 01:21:58;;;;;;;22.33;13.18;;;1.80;99.90;;;;;;4984471;28;20579;-73
2024/01/07 01:24:23;;;;;;;21.63;12.75;;;1.80;99.90;;;;;;4972931;28;20049;-73
2024/01/07 01:26:49;;;;;;;20.95;12.85;;;1.80;99.90;;;;;;4986298;28;20042;-73
2024/01/07 01:29:15;;;;;;;23.27;12.00;;;1.80;99.90;;;;;;4972948;28;20085;-73
2024/01/07 01:31:41;;;;;;;19.85;11.00;;;1.80;99.90;;;;;;4972364;28;20129;-73
2024/01/07 01:34:07;;;;;;;19.10;11.05;;;1.80;99.90;;;;;;4984685;28;20038;-73
2024/01/07 01:36:33;;;;;;;17.95;10.55;;;2.80;99.90;;;;;;4952595;28;20034;-73
2024/01/07 01:38:58;;;;;;;16.73;10.13;;;1.80;99.90;;;;;;4987714;28;20046;-73
2024/01/07 01:41:24;;;;;;;19.92;10.13;;;0.80;99.90;;;;;;4968602;28;20400;-73
2024/01/07 01:43:50;;;;;;;19.52;9.93;;;1.80;99.90;;;;;;4968285;28;20039;-73
2024/01/07 01:46:18;;;;;;;19.83;11.10;;;1.70;99.90;;;;;;4991310;28;20489;-73
2024/01/07 01:48:44;;;;;;;21.73;10.80;;;1.70;99.90;;;;;;4968807;28;20030;-73
2024/01/07 01:51:10;;;;;;;19.80;10.52;;;1.70;99.90;;;;;;4972178;28;20030;-73
2024/01/07 01:53:40;;;;;;;21.15;11.45;;;1.70;99.90;;;;;;4956669;28;20034;-73
2024/01/07 01:56:06;;;;;;;18.48;10.77;;;1.70;99.90;;;;;;4983845;28;20033;-73
2024/01/07 01:58:32;;;;;;;18.27;10.43;;;1.70;99.90;;;;;;4968608;28;20050;-73
2024/01/07 02:00:59;;;;;;;19.00;11.10;;;1.70;99.90;;;;;;4968663;28;20035;-73
2024/01/07 02:03:25;;;;;;;18.35;11.52;;;1.70;99.90;;;;;;4992832;28;20038;-73
2024/01/07 02:05:52;;;;;;;18.83;11.48;;;1.70;99.90;;;;;;4971496;28;20062;-73
2024/01/07 02:08:19;;;;;;;20.00;11.07;;;1.70;99.90;;;;;;4981789;28;20117;-73
2024/01/07 02:10:44;;;;;;;18.27;11.10;;;1.70;99.90;;;;;;4964796;28;20070;-73
2024/01/07 02:13:11;;;;;;;17.63;11.60;;;1.70;99.90;;;;;;4968120;28;20417;-74
2024/01/07 02:15:39;;;;;;;19.83;11.25;;;1.70;99.90;;;;;;4946775;28;20046;-73
2024/01/07 02:18:05;;;;;;;19.50;11.40;;;1.70;99.90;;;;;;4966873;28;20035;-74
2024/01/07 02:20:30;;;;;;;19.77;12.07;;;3.20;99.90;;;;;;4985858;28;20448;-73
2024/01/07 02:22:59;;;;;;;18.63;11.77;;;1.70;99.90;;;;;;4982529;28;20060;-73
2024/01/07 02:25:24;;;;;;;20.23;12.25;;;1.70;99.90;;;;;;4985387;28;20547;-73
2024/01/07 02:27:50;;;;;;;18.08;11.43;;;1.70;99.90;;;;;;4986952;28;20034;-74
2024/01/07 02:30:17;;;;;;;17.63;11.35;;;1.70;99.90;;;;;;4983033;28;20054;-73
2024/01/07 02:32:43;;;;;;;19.05;11.32;;;1.70;99.90;;;;;;4982235;28;20464;-73
2024/01/07 02:35:12;;;;;;;20.92;12.63;;;1.70;99.90;;;;;;4949472;28;20047;-73
2024/01/07 02:37:38;;;;;;;16.85;11.20;;;1.70;99.90;;;;;;4983133;28;20057;-73
2024/01/07 02:40:04;;;;;;;19.45;11.65;;;2.20;99.90;;;;;;4968279;28;20037;-74
2024/01/07 02:42:30;;;;;;;19.67;11.70;;;1.70;99.90;;;;;;4966630;28;20085;-74
2024/01/07 02:44:55;;;;;;;16.77;11.10;;;1.70;99.90;;;;;;4980820;28;20034;-74
2024/01/07 02:47:21;;;;;;;19.38;11.10;;;1.70;99.90;;;;;;4982602;28;20140;-74
2024/01/07 02:49:46;;;;;;;17.15;11.27;;;1.70;99.90;;;;;;4988537;28;20141;-74
2024/01/07 02:52:12;;;;;;;17.35;10.90;;;1.70;99.90;;;;;;4962880;28;20042;-73
2024/01/07 02:54:37;;;;;;;17.77;10.77;;;1.70;99.90;;;;;;4985308;28;20125;-73
2024/01/07 02:57:03;;;;;;;23.77;12.05;;;1.70;99.90;;;;;;4987716;28;20031;-73
2024/01/07 02:59:29;;;;;;;17.83;10.98;;;1.70;99.90;;;;;;4987212;28;20271;-73
2024/01/07 03:01:54;;;;;;;22.63;11.07;;;1.70;99.90;;;;;;4969424;28;20034;-73
2024/01/07 03:04:20;;;;;;;16.98;10.98;;;1.70;99.90;;;;;;4960584;28;20049;-73
2024/01/07 03:06:46;;;;;;;19.13;11.35;;;1.70;99.90;;;;;;4980900;28;20500;-73
2024/01/07 03:09:11;;;;;;;18.08;11.68;;;1.70;99.90;;;;;;4967041;28;20043;-74
2024/01/07 03:11:44;;;;;;;16.92;10.82;;;1.70;99.90;;;;;;4980830;28;20047;-73
2024/01/07 03:14:16;;;;;;;19.10;10.73;;;1.70;99.90;;;;;;4969079;28;20038;-73
2024/01/07 03:16:42;;;;;;;16.48;10.48;;;1.70;99.90;;;;;;4984214;28;20045;-73
2024/01/07 03:19:07;;;;;;;19.05;11.30;;;1.70;99.90;;;;;;4963979;28;20038;-73
2024/01/07 03:21:33;;;;;;;16.63;10.57;;;1.70;99.90;;;;;;4988870;28;20652;-73
2024/01/07 03:23:59;;;;;;;17.65;11.32;;;1.70;99.90;;;;;;4960724;28;20513;-73
2024/01/07 03:26:29;;;;;;;17.88;10.48;;;1.60;99.90;;;;;;4967134;28;20047;-74
2024/01/07 03:28:54;;;;;;;18.60;11.23;;;1.70;99.90;;;;;;4986521;28;20046;-74
2024/01/07 03:31:20;;;;;;;16.55;10.00;;;1.70;99.90;;;;;;4989913;28;20034;-74
2024/01/07 03:33:46;;;;;;;15.13;10.07;;;1.70;99.90;;;;;;4964990;28;20127;-74
2024/01/07 03:36:13;;;;;;;16.98;10.25;;;1.70;99.90;;;;;;4971750;28;20046;-74
2024/01/07 03:38:40;;;;;;;18.75;10.27;;;1.70;99.90;;;;;;4958179;28;20034;-74
2024/01/07 03:41:06;;;;;;;17.63;10.00;;;1.60;99.90;;;;;;4989773;28;20374;-74
2024/01/07 03:43:32;;;;;;;18.65;10.60;;;1.70;99.90;;;;;;4974504;28;20041;-74
2024/01/07 03:45:58;;;;;;;18.52;10.38;;;1.70;99.90;;;;;;4971865;28;20448;-74
2024/01/07 03:48:23;;;;;;;15.98;9.82;;;1.60;99.90;;;;;;4965139;28;20046;-74
2024/01/07 03:50:50;;;;;;;16.27;10.15;;;1.60;99.90;;;;;;4984453;28;20073;-74
2024/01/07 03:53:16;;;;;;;15.95;10.48;;;1.60;99.90;;;;;;4986203;28;20043;-74
2024/01/07 03:55:43;;;;;;;18.92;10.95;;;1.60;99.90;;;;;;4957263;28;20042;-74
2024/01/07 03:58:09;;;;;;;14.25;9.38;;;2.50;99.90;;;;;;4987262;28;20467;-74
2024/01/07 04:00:35;;;;;;;18.88;10.00;;;1.60;99.90;;;;;;4984542;28;20073;-74
2024/01/07 04:03:01;;;;;;;16.45;9.77;;;1.60;99.90;;;;;;4977636;28;20037;-74
2024/01/07 04:05:26;;;;;;;17.98;10.07;;;1.60;99.90;;;;;;4965154;28;20093;-74
2024/01/07 04:07:53;;;;;;;18.25;9.77;;;1.60;99.90;;;;;;4968894;28;20042;-74
2024/01/07 04:10:20;;;;;;;15.90;9.45;;;1.60;99.90;;;;;;4967324;28;20073;-74
2024/01/07 04:12:46;;;;;;;17.15;9.75;;;1.60;99.90;;;;;;4968800;28;20049;-74
2024/01/07 04:15:14;;;;;;;18.85;10.30;;;1.60;99.90;;;;;;4958810;28;20046;-74
2024/01/07 04:17:40;;;;;;;13.73;9.15;;;1.60;99.90;;;;;;4970694;28;20042;-74
2024/01/07 04:20:07;;;;;;;16.52;9.38;;;1.60;99.90;;;;;;4988741;28;20037;-74
2024/01/07 04:22:34;;;;;;;16.08;9.57;;;1.50;99.90;;;;;;4949273;28;20038;-73
2024/01/07 04:24:59;;;;;;;14.63;8.80;;;1.50;99.90;;;;;;4987939;28;20177;-74
2024/01/07 04:27:25;;;;;;;15.98;9.45;;;1.60;99.90;;;;;;4959456;28;20069;-73
2024/01/07 04:29:51;;;;;;;16.08;9.50;;;1.60;99.90;;;;;;4973489;28;20416;-74
2024/01/07 04:32:16;;;;;;;16.55;9.68;;;1.60;99.90;;;;;;4970312;28;20444;-74
2024/01/07 04:34:42;;;;;;;15.65;9.48;;;1.60;99.90;;;;;;4971993;28;20405;-74
2024/01/07 04:37:08;;;;;;;14.63;8.85;;;1.50;99.90;;;;;;4966416;28;20121;-74
2024/01/07 04:39:34;;;;;;;15.07;9.23;;;1.60;99.90;;;;;;4986432;28;20042;-74
2024/01/07 04:41:59;;;;;;;15.65;10.02;;;1.60;99.90;;;;;;4981944;28;20401;-74
2024/01/07 04:44:25;;;;;;;15.60;8.55;;;1.60;99.90;;;;;;4979558;28;20047;-74
2024/01/07 04:46:50;;;;;;;14.82;8.55;;;2.10;99.90;;;;;;4966698;28;20126;-74
2024/01/07 04:49:16;;;;;;;14.77;9.05;;;1.50;99.90;;;;;;4986830;28;20039;-74
2024/01/07 04:51:41;;;;;;;15.00;9.05;;;1.50;99.90;;;;;;4972069;28;20037;-74
2024/01/07 04:54:07;;;;;;;13.82;7.82;;;1.50;99.90;;;;;;4969902;28;20055;-74
2024/01/07 04:56:33;;;;;;;13.35;8.25;;;1.50;99.90;;;;;;4987866;28;20042;-74
2024/01/07 04:59:01;;;;;;;14.63;8.82;;;1.40;99.90;;;;;;4972139;28;20050;-74
2024/01/07 05:01:28;;;;;;;15.52;9.40;;;1.50;99.90;;;;;;4981150;28;20066;-74
2024/01/07 05:03:53;;;;;;;14.02;8.50;;;1.50;99.90;;;;;;4985926;28;20077;-73
2024/01/07 05:06:19;;;;;;;14.88;8.68;;;1.40;99.90;;;;;;4977970;28;20042;-73
2024/01/07 05:08:45;;;;;;;17.45;9.32;;;1.40;99.90;;;;;;4989335;28;20045;-74
2024/01/07 05:11:11;;;;;;;17.00;9.02;;;1.40;99.90;;;;;;4985371;28;20034;-74
2024/01/07 05:13:37;;;;;;;14.57;9.32;;;1.40;99.90;;;;;;4983856;28;20413;-73
2024/01/07 05:16:04;;;;;;;15.10;9.13;;;1.40;99.90;;;;;;4940811;28;20042;-74
2024/01/07 05:18:29;;;;;;;15.35;9.32;;;1.40;99.90;;;;;;4983873;28;20034;-73
2024/01/07 05:20:55;;;;;;;15.90;9.13;;;1.40;99.90;;;;;;4983461;28;20042;-74
2024/01/07 05:23:21;;;;;;;14.27;8.73;;;2.10;99.90;;;;;;4977521;28;20038;-74
2024/01/07 05:25:47;;;;;;;15.38;8.55;;;1.30;99.90;;;;;;4962591;28;20047;-74
2024/01/07 05:28:14;;;;;;;14.65;8.45;;;1.30;99.90;;;;;;4993533;28;20069;-73
2024/01/07 05:30:43;;;;;;;13.15;7.90;;;1.30;99.90;;;;;;4946673;28;20042;-74
2024/01/07 05:33:09;;;;;;;12.88;8.05;;;1.40;99.90;;;;;;4986717;28;20038;-74
2024/01/07 05:35:35;;;;;;;12.52;7.30;;;1.30;99.90;;;;;;4963747;28;20069;-73
2024/01/07 05:38:01;;;;;;;14.50;8.20;;;1.30;99.90;;;;;;4995195;28;20034;-73
2024/01/07 05:40:26;;;;;;;12.88;7.43;;;1.30;99.90;;;;;;4964003;28;20039;-73
2024/01/07 05:42:52;;;;;;;10.27;6.82;;;1.30;99.90;;;;;;4987322;28;20107;-73
2024/01/07 05:45:17;;;;;;;11.18;6.80;;;1.30;99.90;;;;;;4968459;28;20056;-74
2024/01/07 05:47:43;;;;;;;10.52;6.65;;;1.80;99.90;;;;;;4965615;28;20034;-74
2024/01/07 05:50:10;;;;;;;10.20;5.85;;;1.30;99.90;;;;;;4982439;28;20532;-74
2024/01/07 05:52:37;;;;;;;9.60;6.22;;;0.20;99.90;;;;;;4957667;28;20046;-74
2024/01/07 05:55:03;;;;;;;10.57;6.00;;;1.20;99.90;;;;;;4970543;28;20436;-74
2024/01/07 05:57:29;;;;;;;9.60;5.90;;;1.30;99.90;;;;;;4973533;28;20109;-74
2024/01/07 05:59:55;;;;;;;9.70;6.10;;;1.30;99.90;;;;;;4962856;28;20114;-74
2024/01/07 06:02:24;;;;;;;10.45;6.57;;;1.30;99.90;;;;;;4960505;28;20541;-74
2024/01/07 06:04:53;;;;;;;10.45;5.95;;;1.30;99.90;;;;;;4956765;28;20404;-74
2024/01/07 06:07:21;;;;;;;11.18;6.03;;;1.30;99.90;;;;;;4971617;28;20058;-74
2024/01/07 06:09:50;;;;;;;11.02;6.03;;;1.30;99.90;;;;;;4972556;28;20074;-73
2024/01/07 06:12:16;;;;;;;11.07;6.03;;;1.20;99.90;;;;;;4968405;28;20054;-74
2024/01/07 06:14:42;;;;;;;10.25;6.00;;;1.20;99.90;;;;;;4987202;28;20042;-75
2024/01/07 06:17:07;;;;;;;10.90;5.68;;;1.20;99.90;;;;;;4993776;28;20034;-74
2024/01/07 06:19:34;;;;;;;8.10;5.00;;;1.20;99.90;;;;;;4962572;28;20042;-74
2024/01/07 06:21:59;;;;;;;11.25;5.50;;;1.20;99.90;;;;;;4974169;28;20114;-74
2024/01/07 06:24:28;;;;;;;10.13;5.22;;;1.20;99.90;;;;;;4992333;28;20195;-73
2024/01/07 06:26:53;;;;;;;8.02;4.60;;;1.20;99.90;;;;;;5024869;22;20046;-72
2024/01/07 06:29:19;;;;;;;8.68;4.32;;;1.20;99.90;;;;;;5012352;28;20038;-75
2024/01/07 06:31:45;;;;;;;7.78;4.47;;;1.10;99.90;;;;;;5006673;28;20038;-72
2024/01/07 06:34:13;;;;;;;8.88;4.45;;;1.10;99.90;;;;;;5009848;28;20048;-72
2024/01/07 06:36:41;;;;;;;8.13;5.00;;;1.10;99.90;;;;;;5012114;28;20060;-72
2024/01/07 06:39:07;;;;;;;7.53;4.70;;;1.10;99.90;;;;;;5009599;28;20572;-72
2024/01/07 06:41:33;;;;;;;9.10;4.40;;;1.10;99.90;;;;;;5012544;28;20407;-73
2024/01/07 06:43:59;;;;;;;8.40;4.47;;;1.10;99.90;;;;;;4993149;28;20034;-72
2024/01/07 06:46:25;;;;;;;7.38;4.55;;;1.10;99.90;;;;;;5010119;28;20041;-72
2024/01/07 06:48:51;;;;;;;8.90;4.35;;;1.10;99.90;;;;;;5012010;28;20072;-74
2024/01/07 06:51:16;;;;;;;8.95;4.53;;;1.10;99.90;;;;;;5012160;28;20389;-72
2024/01/07 06:53:42;;;;;;;9.07;4.28;;;1.10;99.90;;;;;;5012267;28;20391;-74
2024/01/07 06:56:07;;;;;;;6.25;3.80;;;1.10;99.90;;;;;;5011512;28;20034;-72
2024/01/07 06:58:33;;;;;;;9.10;3.85;;;1.10;99.90;;;;;;5011986;28;20042;-72
2024/01/07 07:00:58;;;;;;;8.10;4.15;;;1.10;99.90;;;;;;5011966;28;20129;-72
2024/01/07 07:03:24;;;;;;;6.22;3.55;;;1.10;99.90;;;;;;5009086;28;20062;-76
2024/01/07 07:05:49;;;;;;;7.25;3.17;;;1.10;99.90;;;;;;5008515;28;20041;-72
2024/01/07 07:08:16;;;;;;;5.40;3.10;;;1.10;99.90;;;;;;5001814;28;20050;-71
2024/01/07 07:10:41;;;;;;;6.55;3.33;;;1.10;99.90;;;;;;5011271;28;20041;-71
2024/01/07 07:13:07;;;;;;;7.53;2.92;;;1.10;99.90;;;;;;5011789;28;20045;-72
2024/01/07 07:15:32;;;;;;;7.20;3.10;;;1.10;99.90;;;;;;5011313;28;20116;-75
2024/01/07 07:17:58;;;;;;;7.53;3.75;;;1.10;99.90;;;;;;5008994;28;20081;-71
2024/01/07 07:20:23;;;;;;;6.00;3.13;;;1.10;99.90;;;;;;5012489;28;20038;-73
2024/01/07 07:22:49;;;;;;;6.20;3.30;;;1.10;99.90;;;;;;5010378;28;20091;-73
2024/01/07 07:25:14;;;;;;;4.78;3.00;;;1.00;99.90;;;;;;4999922;28;20052;-74
2024/01/07 07:27:40;;;;;;;7.25;3.08;;;1.00;99.90;;;;;;5011128;28;20037;-71
2024/01/07 07:30:06;;;;;;;6.28;2.75;;;1.10;99.90;;;;;;5011529;28;20108;-72
2024/01/07 07:32:32;;;;;;;9.57;3.05;;;1.00;99.90;;;;;;5012680;28;20442;-71
2024/01/07 07:34:57;;;;;;;6.22;3.28;;;1.00;99.90;;;;;;5012008;28;20050;-72
2024/01/07 07:37:23;;;;;;;6.03;2.88;;;1.00;99.90;;;;;;5006440;28;20061;-76
2024/01/07 07:39:49;;;;;;;7.40;3.15;;;1.00;99.90;;;;;;5011095;28;20049;-72
2024/01/07 07:42:16;;;;;;;5.07;2.85;;;1.00;99.90;;;;;;5010309;28;20037;-72
2024/01/07 07:44:41;;;;;;;7.90;3.10;;;1.10;99.90;;;;;;5010474;28;20120;-76
2024/01/07 07:47:11;;;;;;;8.32;3.10;;;1.10;99.90;;;;;;4995777;28;20077;-75
2024/01/07 07:49:39;;;;;;;8.25;2.90;;;1.10;99.90;;;;;;5007799;28;20042;-75
2024/01/07 07:52:14;;;;;;;5.45;2.90;;;1.10;99.90;;;;;;5008722;28;20108;-74
2024/01/07 07:54:39;;;;;;;6.28;2.97;;;1.10;99.90;;;;;;5007312;28;20054;-73
2024/01/07 07:57:05;;;;;;;5.38;2.90;;;1.10;99.90;;;;;;5012420;28;20552;-73
2024/01/07 07:59:31;;;;;;;8.85;3.80;;;1.00;99.90;;;;;;5011066;28;20121;-73
2024/01/07 08:01:56;;;;;;;7.07;4.00;;;1.00;99.90;;;;;;5010947;28;20044;-73
2024/01/07 08:04:22;;;;;;;9.70;3.90;;;1.10;99.90;;;;;;4994923;28;20073;-76
2024/01/07 08:06:47;;;;;;;7.70;3.60;;;1.10;99.90;;;;;;5009419;28;20060;-73
2024/01/07 08:09:13;;;;;;;7.40;4.97;;;1.10;99.90;;;;;;5005941;28;20401;-73
2024/01/07 08:11:39;;;;;;;5.90;3.63;;;1.20;99.90;;;;;;5003929;28;20038;-74
2024/01/07 08:14:05;;;;;;;7.72;4.05;;;1.10;99.90;;;;;;5009877;28;20061;-74
2024/01/07 08:16:31;;;;;;;6.20;2.83;;;1.10;99.90;;;;;;5008211;28;20045;-77
2024/01/07 08:18:57;;;;;;;5.63;3.00;;;1.10;99.90;;;;;;5007345;28;20439;-78
2024/01/07 08:21:23;;;;;;;4.88;3.00;;;1.00;99.90;;;;;;5009882;28;20057;-75
2024/01/07 08:23:49;;;;;;;6.15;3.03;;;1.10;99.90;;;;;;5009253;28;20128;-78
2024/01/07 08:26:21;;;;;;;4.93;2.78;;;1.00;99.90;;;;;;5009474;28;20042;-78
2024/01/07 08:28:47;;;;;;;4.93;2.60;;;1.00;99.90;;;;;;5008636;28;20443;-78
2024/01/07 08:31:12;;;;;;;5.38;2.72;;;1.00;99.90;;;;;;5009547;28;20042;-78
2024/01/07 08:33:38;;;;;;;8.20;2.83;;;0.90;99.90;;;;;;5009250;28;21316;-78
2024/01/07 08:36:04;;;;;;;4.13;2.58;;;0.90;99.90;;;;;;5010412;28;20049;-80
2024/01/07 08:38:30;;;;;;;5.68;2.78;;;0.90;99.90;;;;;;5009326;28;20403;-78
2024/01/07 08:40:56;;;;;;;5.30;2.78;;;0.90;99.90;;;;;;5009843;28;20120;-78
2024/01/07 08:43:21;;;;;;;5.53;3.25;;;1.00;99.90;;;;;;5009971;28;20041;-77
2024/01/07 08:45:47;;;;;;;7.35;3.00;;;1.00;99.90;;;;;;5008993;28;20029;-76
2024/01/07 08:48:12;;;;;;;7.90;4.20;;;0.90;99.90;;;;;;4992236;28;20040;-80
2024/01/07 08:50:38;;;;;;;19.38;10.35;;;0.90;99.90;;;;;;5008699;28;20041;-78
2024/01/07 08:53:04;;;;;;;10.85;6.05;;;0.90;99.90;;;;;;5008696;28;20038;-77
2024/01/07 08:55:30;;;;;;;7.00;3.45;;;0.90;99.90;;;;;;5009389;28;20046;-79
2024/01/07 08:57:56;;;;;;;6.97;2.90;;;0.90;99.90;;;;;;4993196;28;20069;-78
2024/01/07 09:00:25;;;;;;;4.60;2.47;;;0.80;99.90;;;;;;5010771;28;20424;-77
2024/01/07 09:02:51;;;;;;;3.88;2.35;;;0.90;99.90;;;;;;5009181;28;20093;-79
2024/01/07 09:05:17;;;;;;;9.35;2.50;;;1.00;99.90;;;;;;5008929;28;20412;-79
2024/01/07 09:07:43;;;;;;;6.38;3.78;;;0.80;99.90;;;;;;5009327;28;20045;-79
2024/01/07 09:10:10;;;;;;;6.45;2.97;;;0.80;99.90;;;;;;5009407;28;20489;-78
2024/01/07 09:12:37;;;;;;;6.10;2.67;;;0.80;99.90;;;;;;5009257;28;20049;-76
2024/01/07 09:15:04;;;;;;;6.43;2.92;;;0.80;99.90;;;;;;5014676;28;20045;-78
2024/01/07 09:17:31;;;;;;;10.80;4.18;;;0.80;99.90;;;;;;5004962;28;20087;-77
2024/01/07 09:19:56;;;;;;;6.93;3.55;;;0.80;99.90;;;;;;5008234;28;20060;-80
2024/01/07 09:22:22;;;;;;;7.60;4.65;;;0.80;99.90;;;;;;5007189;28;20404;-78
2024/01/07 09:24:47;;;;;;;9.55;3.95;;;0.70;99.90;;;;;;5006514;28;20061;-77
2024/01/07 09:27:14;;;;;;;7.97;4.18;;;0.70;99.90;;;;;;5008346;28;20076;-75
2024/01/07 09:29:39;;;;;;;10.77;6.70;;;0.80;99.90;;;;;;5007680;28;20046;-79
2024/01/07 09:32:05;;;;;;;11.90;7.82;;;0.80;99.90;;;;;;5009789;28;20038;-78
2024/01/07 09:34:31;;;;;;;24.85;12.75;;;0.70;99.90;;;;;;5009231;28;20038;-78
2024/01/07 09:36:56;;;;;;;29.40;14.73;;;0.80;99.90;;;;;;5006266;28;20026;-77
2024/01/07 09:39:22;;;;;;;13.98;7.18;;;0.70;99.90;;;;;;5005152;28;20046;-77
2024/01/07 09:41:47;;;;;;;9.85;6.43;;;0.80;99.90;;;;;;5007951;28;20050;-77
2024/01/07 09:44:13;;;;;;;10.27;4.30;;;0.70;99.90;;;;;;5006988;28;20044;-76
2024/01/07 09:46:41;;;;;;;10.57;4.90;;;0.70;99.90;;;;;;5005492;28;20586;-72
2024/01/07 09:49:07;;;;;;;7.28;3.88;;;0.80;99.90;;;;;;5006511;28;20070;-76
2024/01/07 09:51:38;;;;;;;7.30;3.88;;;0.70;99.90;;;;;;5007613;28;20072;-76
2024/01/07 09:54:11;;;;;;;8.15;4.10;;;0.80;99.90;;;;;;5007559;28;20042;-77
2024/01/07 09:56:42;;;;;;;4.85;3.30;;;0.80;99.90;;;;;;5006055;28;20504;-76
2024/01/07 09:59:08;;;;;;;5.40;2.88;;;0.80;99.90;;;;;;5006040;28;20113;-77
2024/01/07 10:01:35;;;;;;;6.20;2.78;;;0.80;99.90;;;;;;5006100;28;20065;-77
2024/01/07 10:04:01;;;;;;;3.90;2.17;;;0.80;99.90;;;;;;5006110;28;20041;-77
2024/01/07 10:06:27;;;;;;;6.00;2.10;;;0.80;99.90;;;;;;5009026;28;20030;-76
2024/01/07 10:08:52;;;;;;;5.25;2.08;;;0.80;99.90;;;;;;5009868;28;20458;-75
2024/01/07 10:11:18;;;;;;;6.43;2.40;;;0.80;99.90;;;;;;5010068;28;20084;-76
2024/01/07 10:13:51;;;;;;;3.25;1.90;;;0.80;99.90;;;;;;5012170;28;20200;-76
2024/01/07 10:16:17;;;;;;;7.50;2.20;;;0.80;99.90;;;;;;5011355;28;20058;-77
2024/01/07 10:18:42;;;;;;;4.50;2.10;;;0.80;99.90;;;;;;5010757;28;20046;-76
2024/01/07 10:21:08;;;;;;;4.32;2.10;;;0.90;99.90;;;;;;4993815;28;20501;-77
2024/01/07 10:23:34;;;;;;;4.53;2.10;;;0.90;99.90;;;;;;5010849;28;20041;-77
2024/01/07 10:26:01;;;;;;;5.80;2.28;;;0.90;99.90;;;;;;5009159;28;20049;-75
2024/01/07 10:28:27;;;;;;;6.88;3.55;;;0.90;99.90;;;;;;5010348;28;20500;-76
2024/01/07 10:30:53;;;;;;;6.10;2.90;;;0.90;99.90;;;;;;5010085;28;20052;-76
2024/01/07 10:33:23;;;;;;;4.40;2.63;;;0.90;99.90;;;;;;5009988;28;20037;-76
2024/01/07 10:35:54;;;;;;;5.25;2.35;;;0.90;99.90;;;;;;5008913;28;20046;-76
2024/01/07 10:38:21;;;;;;;4.15;2.25;;;0.90;99.90;;;;;;4993926;28;20037;-76
2024/01/07 10:40:49;;;;;;;4.63;2.50;;;0.90;99.90;;;;;;5010471;28;20049;-76
2024/01/07 10:43:16;;;;;;;5.03;2.20;;;1.00;99.90;;;;;;5010320;28;20077;-76
2024/01/07 10:45:47;;;;;;;5.25;2.10;;;1.00;99.90;;;;;;5010469;28;20052;-75
2024/01/07 10:48:17;;;;;;;3.28;2.30;;;1.10;99.90;;;;;;5012084;28;20100;-76
2024/01/07 10:50:45;;;;;;;3.53;2.30;;;1.10;99.90;;;;;;5011170;28;20053;-76
2024/01/07 10:53:18;;;;;;;4.85;2.20;;;1.10;99.90;;;;;;5026183;28;20081;-77
2024/01/07 10:55:48;;;;;;;5.28;2.10;;;1.20;99.90;;;;;;5008466;28;20038;-75
2024/01/07 10:58:14;;;;;;;4.00;1.98;;;1.90;99.90;;;;;;4994515;28;20127;-76
2024/01/07 11:00:40;;;;;;;3.95;1.80;;;1.30;99.90;;;;;;5009711;28;20037;-76
2024/01/07 11:03:27;;;;;;;5.80;2.03;;;1.30;99.90;;;;;;5009749;28;20046;-77
2024/01/07 11:06:09;;;;;;;20.83;10.88;;;1.30;99.90;;;;;;5009240;28;20044;-76
2024/01/07 11:08:41;;;;;;;49.08;27.77;;;1.40;99.90;;;;;;5010277;28;20045;-75
2024/01/07 11:11:16;;;;;;;26.95;13.90;;;1.40;99.90;;;;;;5025027;28;20034;-75
2024/01/07 11:13:41;;;;;;;14.00;6.85;;;1.50;99.90;;;;;;5010130;28;20500;-78
2024/01/07 11:16:11;;;;;;;16.38;8.32;;;1.50;99.90;;;;;;4991440;28;20038;-76
2024/01/07 11:18:45;;;;;;;18.45;9.68;;;1.50;99.90;;;;;;5026297;28;20120;-76
2024/01/07 11:21:10;;;;;;;22.65;11.30;;;1.60;99.90;;;;;;5007767;28;20052;-76
2024/01/07 11:23:43;;;;;;;28.45;14.68;;;1.50;99.90;;;;;;5012265;28;20042;-77
2024/01/07 11:26:10;;;;;;;20.88;10.05;;;1.60;99.90;;;;;;5009481;28;20411;-76
2024/01/07 11:28:50;;;;;;;15.27;8.02;;;1.60;99.90;;;;;;4997549;28;20172;-76
2024/01/07 11:31:17;;;;;;;10.07;4.40;;;1.60;99.90;;;;;;5018769;28;20121;-77
2024/01/07 11:33:45;;;;;;;8.77;4.60;;;1.60;99.90;;;;;;5010226;28;20408;-76
2024/01/07 11:36:13;;;;;;;15.55;6.20;;;1.60;99.90;;;;;;4994756;28;20050;-76
2024/01/07 11:38:48;;;;;;;12.98;5.55;;;1.60;99.90;;;;;;5011361;28;20116;-76
2024/01/07 11:41:15;;;;;;;17.30;7.80;;;1.60;99.90;;;;;;5008439;28;20445;-76
2024/01/07 11:44:00;;;;;;;8.48;3.75;;;1.60;99.90;;;;;;5011411;28;20412;-78
2024/01/07 11:46:30;;;;;;;10.02;4.95;;;1.60;99.90;;;;;;5006789;28;20034;-76
2024/01/07 11:48:59;;;;;;;16.02;6.97;;;1.60;99.90;;;;;;5012278;28;20037;-76
2024/01/07 11:51:30;;;;;;;10.00;5.13;;;1.60;99.90;;;;;;5009313;28;20046;-76
2024/01/07 11:53:57;;;;;;;14.13;6.97;;;1.60;99.90;;;;;;5009642;28;20045;-76
2024/01/07 11:56:24;;;;;;;18.95;10.27;;;1.60;99.90;;;;;;5008114;28;20042;-78
2024/01/07 11:58:50;;;;;;;16.05;8.45;;;1.70;99.90;;;;;;5025430;28;20042;-77
2024/01/07 12:01:16;;;;;;;15.52;7.53;;;1.70;99.90;;;;;;5010908;28;20113;-76
2024/01/07 12:03:46;;;;;;;28.45;14.70;;;1.70;99.90;;;;;;5010254;28;20034;-76
2024/01/07 12:06:15;;;;;;;19.27;10.20;;;1.80;99.90;;;;;;5009779;28;20109;-79
2024/01/07 12:08:42;;;;;;;10.82;6.43;;;1.80;99.90;;;;;;5010926;28;20042;-76
2024/01/07 12:11:11;;;;;;;6.57;3.80;;;1.80;99.90;;;;;;5011961;28;20033;-77
2024/01/07 12:13:37;;;;;;;8.68;2.95;;;1.80;99.90;;;;;;5008715;28;20887;-76
2024/01/07 12:16:03;;;;;;;7.32;3.03;;;1.80;99.90;;;;;;5010000;28;20124;-76
2024/01/07 12:18:29;;;;;;;5.25;2.70;;;1.90;99.90;;;;;;5006741;28;20038;-77
2024/01/07 12:20:59;;;;;;;5.07;2.55;;;1.90;99.90;;;;;;5009316;28;20037;-76
2024/01/07 12:23:26;;;;;;;8.93;2.83;;;1.90;99.90;;;;;;5008473;28;20133;-76
2024/01/07 12:28:19;;;;;;;9.07;2.75;;;2.20;99.90;;;;;;5005632;28;20561;-73
2024/01/07 12:30:47;;;;;;;5.68;2.80;;;2.20;99.90;;;;;;5005204;28;20096;-74
2024/01/07 12:33:18;;;;;;;21.48;12.35;;;2.30;99.90;;;;;;5009674;28;20072;-73
2024/01/07 12:35:51;;;;;;;12.90;6.20;;;2.40;99.90;;;;;;4992562;28;20042;-74
2024/01/07 12:38:23;;;;;;;;;;;2.60;99.90;;;;;;4984997;28;20040;-74
2024/01/07 12:40:50;;;;;;;6.38;2.47;;;2.90;99.90;;;;;;5006545;28;19917;-74
2024/01/07 12:43:16;;;;;;;6.50;3.20;;;3.20;99.90;;;;;;5003066;28;20120;-71
2024/01/07 12:45:42;;;;;;;10.13;4.90;;;3.40;99.90;;;;;;5007335;28;20030;-73
2024/01/07 12:48:08;;;;;;;6.32;2.80;;;3.70;99.90;;;;;;5023445;28;20037;-74